Hlavní strana
METAR-TAF:

METAR-TAF

Letiště :

Čeboksary, Rusko

zeměpisná šířka: 56-05-24N, zeměpisná délka: 047-20-50E, výška: 171 m

Aktuální stav počasí

Zpráva byla vytvořena před 39 minutami, v 00:00 UTC
Jihojihovýchodní vítr 6 kt
Teplota 11°C
Vlhkost vzduchu 76%
Tlak 1010 hPa
Viditelnost 10 km a více
Žádná oblačnost pod 1500 m, nevyskytují se cumulonimby.

METAR: UWKS 090000Z 15003MPS CAVOK 11/07 Q1010 R06/010060 NOSIG RMK QFE742

Čas: 03:39 (00:39 UTC)

Předpověď počasí

Zpráva byla vytvořena před 1 hodinou a 44 minutami, v 22:55 UTC
Předpověď platná od 09 v 00 UTC do 09 v 09 UTC
Jihojihovýchodní vítr 10 kt s nárazy do 19 kt
Viditelnost 10 km a více
Polojasno ve výšce 4000 ft

TAF: UWKS 082255Z 0900/0909 15005G10MPS 9999 SCT040 TX15/0909Z TN09/0902Z

Stav a předpovědi počasí z více než 4 000 letišť (zprávy METAR a TAF).

Červené a žluté tečky na mapě představují dostupné meteorologické stanice.

Když kurzor umístíte na tečku, zobrazí se název stanice.

Pak kliknutím zobrazíte stav a předpověď počasí.

Chcete-li změnit mapu, kliknutím na zelené tlačítko se znaménkem +mapu přiblížíte, kliknutím na zelené tlačítko se znaménkem – mapu oddálíte a kliknutím na zelené šipky přejdete na sousední mapy.


METAR-TAF: